Time;durP1;ratioP1;P1;durP2;ratioP2;P2;SDS_P1;SDS_P2;PMS_P1;PMS_P2;Temp;Humidity;BMP_temperature;BMP_pressure;BME280_temperature;BME280_humidity;BME280_pressure;Samples;Min_cycle;Max_cycle;Signal;HPM_P1;HPM_P2
2021/06/30 00:01:43;;;;;;;1.25;1.25;;;28.20;53.50;;;;;;5090299;28;20090;-73
2021/06/30 00:04:14;;;;;;;1.13;1.13;;;28.30;53.60;;;;;;5107085;28;20122;-73
2021/06/30 00:06:47;;;;;;;1.40;1.30;;;28.20;53.50;;;;;;5107709;28;20069;-73
2021/06/30 00:09:19;;;;;;;1.10;1.10;;;28.20;53.50;;;;;;5107525;28;20048;-73
2021/06/30 00:11:52;;;;;;;0.90;0.90;;;28.20;53.50;;;;;;5107162;28;20135;-73
2021/06/30 00:14:24;;;;;;;1.00;1.00;;;28.20;53.60;;;;;;5107099;28;20051;-74
2021/06/30 00:16:57;;;;;;;1.60;1.50;;;28.20;53.50;;;;;;5107068;28;20065;-73
2021/06/30 00:19:29;;;;;;;1.05;1.05;;;28.20;53.60;;;;;;5107744;28;20157;-74
2021/06/30 00:22:02;;;;;;;1.30;1.20;;;28.20;53.60;;;;;;5108558;28;20079;-73
2021/06/30 00:24:34;;;;;;;1.20;1.10;;;28.20;53.60;;;;;;5110888;28;20047;-73
2021/06/30 00:27:06;;;;;;;1.40;1.30;;;28.20;53.60;;;;;;5111196;28;20055;-73
2021/06/30 00:29:38;;;;;;;1.10;1.10;;;28.20;53.60;;;;;;5093549;28;20123;-74
2021/06/30 00:32:10;;;;;;;1.15;1.15;;;28.20;53.70;;;;;;5110633;28;20142;-73
2021/06/30 00:34:42;;;;;;;1.00;1.00;;;28.20;53.60;;;;;;5110831;28;20043;-74
2021/06/30 00:37:15;;;;;;;0.80;0.80;;;28.20;53.70;;;;;;5110718;28;20071;-73
2021/06/30 00:39:47;;;;;;;1.40;1.17;;;28.20;53.60;;;;;;5093529;28;20786;-73
2021/06/30 00:42:19;;;;;;;0.80;0.80;;;28.20;53.60;;;;;;5110604;28;20131;-73
2021/06/30 00:44:51;;;;;;;0.98;0.98;;;28.20;53.60;;;;;;5110652;28;20176;-73
2021/06/30 00:47:23;;;;;;;1.00;1.00;;;28.20;53.60;;;;;;5110108;28;20210;-73
2021/06/30 00:49:55;;;;;;;1.38;1.30;;;28.20;53.60;;;;;;5110723;28;20040;-73
2021/06/30 00:52:27;;;;;;;1.05;1.05;;;28.20;53.60;;;;;;5110428;28;20058;-73
2021/06/30 00:54:59;;;;;;;1.10;1.10;;;28.20;53.60;;;;;;5110391;28;20051;-73
2021/06/30 00:57:32;;;;;;;0.90;0.90;;;28.20;53.60;;;;;;5110009;28;20075;-73
2021/06/30 01:00:08;;;;;;;1.10;1.10;;;28.20;53.60;;;;;;5110187;28;20044;-73
2021/06/30 01:02:40;;;;;;;1.55;1.13;;;28.20;53.60;;;;;;5110129;28;20489;-73
2021/06/30 01:05:12;;;;;;;1.00;1.00;;;28.20;53.60;;;;;;5110082;28;20048;-73
2021/06/30 01:07:44;;;;;;;0.95;0.95;;;28.20;53.60;;;;;;5110286;28;20052;-73
2021/06/30 01:10:17;;;;;;;1.15;1.15;;;28.20;53.70;;;;;;5109893;28;20126;-73
2021/06/30 01:12:49;;;;;;;1.17;1.17;;;28.20;53.70;;;;;;5110198;28;20047;-74
2021/06/30 01:15:21;;;;;;;1.05;1.05;;;28.20;53.60;;;;;;5110286;28;20156;-73
2021/06/30 01:17:53;;;;;;;1.00;1.00;;;28.20;53.70;;;;;;5110028;28;20074;-73
2021/06/30 01:20:25;;;;;;;0.80;0.75;;;28.20;53.60;;;;;;5109545;28;20051;-73
2021/06/30 01:23:09;;;;;;;0.95;0.95;;;28.20;53.70;;;;;;5109815;28;20118;-73
2021/06/30 01:25:42;;;;;;;1.10;1.10;;;28.20;53.70;;;;;;5109646;28;20447;-73
2021/06/30 01:28:15;;;;;;;1.48;1.17;;;28.20;53.70;;;;;;5109230;28;20053;-73
2021/06/30 01:30:49;;;;;;;1.10;1.00;;;28.10;53.60;;;;;;5109947;28;20054;-73
2021/06/30 01:33:23;;;;;;;0.90;0.90;;;28.10;53.60;;;;;;5108674;28;20056;-73
2021/06/30 01:35:51;;;;;;;0.82;0.82;;;28.20;53.70;;;;;;5109442;28;20082;-73
2021/06/30 01:38:26;;;;;;;1.00;1.00;;;28.20;53.70;;;;;;5109639;28;20064;-73
2021/06/30 01:40:58;;;;;;;1.13;1.02;;;28.20;53.60;;;;;;5076263;28;20134;-73
2021/06/30 01:43:31;;;;;;;1.67;1.08;;;28.20;53.60;;;;;;5109637;28;20043;-73
2021/06/30 01:46:03;;;;;;;1.10;1.00;;;28.20;53.60;;;;;;5109435;28;20074;-73
2021/06/30 01:48:36;;;;;;;1.48;0.90;;;28.20;53.60;;;;;;5109162;28;20121;-73
2021/06/30 01:51:08;;;;;;;1.00;1.00;;;28.20;53.60;;;;;;5109000;28;20052;-73
2021/06/30 01:53:40;;;;;;;0.90;0.90;;;28.20;53.60;;;;;;5109040;28;20122;-73
2021/06/30 01:56:12;;;;;;;1.83;1.67;;;28.20;53.70;;;;;;5109282;28;20130;-72
2021/06/30 01:58:44;;;;;;;1.00;1.00;;;28.20;53.70;;;;;;5108816;28;20046;-73
2021/06/30 02:01:16;;;;;;;1.50;1.27;;;28.20;53.70;;;;;;5108823;28;20552;-73
2021/06/30 02:03:48;;;;;;;1.00;1.00;;;28.10;53.60;;;;;;5109168;28;20097;-73
2021/06/30 02:06:20;;;;;;;0.82;0.82;;;28.10;53.60;;;;;;5108910;28;20596;-73
2021/06/30 02:08:56;;;;;;;1.23;1.05;;;28.10;53.60;;;;;;5108477;28;20569;-74
2021/06/30 02:11:28;;;;;;;1.23;1.23;;;28.10;53.60;;;;;;5109059;28;20502;-73
2021/06/30 02:14:00;;;;;;;0.80;0.80;;;28.10;53.60;;;;;;5108576;28;20462;-73
2021/06/30 02:16:33;;;;;;;1.60;1.50;;;28.10;53.60;;;;;;5108504;28;20074;-73
2021/06/30 02:19:08;;;;;;;0.90;0.90;;;28.10;53.60;;;;;;5108974;28;20462;-73
2021/06/30 02:21:40;;;;;;;1.10;1.00;;;28.10;53.60;;;;;;5108074;28;20138;-74
2021/06/30 02:24:12;;;;;;;1.48;1.30;;;28.20;53.70;;;;;;5108479;28;20079;-74
2021/06/30 02:26:44;;;;;;;1.00;1.00;;;28.20;53.70;;;;;;5108554;28;20048;-74
2021/06/30 02:29:16;;;;;;;0.77;0.77;;;28.20;53.70;;;;;;5108686;28;20445;-74
2021/06/30 02:31:48;;;;;;;2.00;1.30;;;28.20;53.60;;;;;;5108439;28;20207;-73
2021/06/30 02:34:20;;;;;;;0.95;0.95;;;28.20;53.70;;;;;;5108348;28;20127;-72
2021/06/30 02:36:52;;;;;;;1.00;1.00;;;28.10;53.60;;;;;;5108234;28;20134;-73
2021/06/30 02:39:24;;;;;;;0.93;0.93;;;28.10;53.60;;;;;;5108310;28;20077;-73
2021/06/30 02:41:56;;;;;;;1.27;1.15;;;28.10;53.60;;;;;;5108162;28;20047;-73
2021/06/30 02:44:28;;;;;;;1.30;1.00;;;28.10;53.60;;;;;;5107661;28;20075;-73
2021/06/30 02:47:01;;;;;;;1.35;1.25;;;28.10;53.60;;;;;;5108051;28;20061;-73
2021/06/30 02:49:33;;;;;;;1.00;1.00;;;28.10;53.60;;;;;;5107898;28;20326;-73
2021/06/30 02:52:05;;;;;;;1.00;1.00;;;28.10;53.60;;;;;;5108268;28;20131;-73
2021/06/30 02:54:37;;;;;;;0.95;0.95;;;28.10;53.60;;;;;;5107938;28;20132;-73
2021/06/30 02:57:09;;;;;;;1.30;1.13;;;28.10;53.60;;;;;;5107810;28;20575;-73
2021/06/30 02:59:41;;;;;;;1.20;1.10;;;28.10;53.60;;;;;;5107998;28;20047;-73
2021/06/30 03:02:13;;;;;;;0.93;0.93;;;28.10;53.60;;;;;;5108082;28;20412;-73
2021/06/30 03:04:45;;;;;;;1.00;1.00;;;28.10;53.60;;;;;;5107997;28;20230;-73
2021/06/30 03:07:18;;;;;;;0.93;0.93;;;28.10;53.60;;;;;;5108176;28;20142;-73
2021/06/30 03:09:50;;;;;;;1.20;1.10;;;28.10;53.60;;;;;;5107509;28;20071;-74
2021/06/30 03:12:21;;;;;;;1.05;1.05;;;28.10;53.60;;;;;;5107734;28;20134;-73
2021/06/30 03:14:53;;;;;;;0.95;0.95;;;28.10;53.60;;;;;;5108234;28;20064;-73
2021/06/30 03:17:26;;;;;;;0.88;0.88;;;28.10;53.60;;;;;;5108626;28;20135;-74
2021/06/30 03:19:58;;;;;;;1.00;0.93;;;28.10;53.60;;;;;;5107710;28;20056;-73
2021/06/30 03:22:29;;;;;;;1.10;1.00;;;28.10;53.60;;;;;;5107434;28;20159;-73
2021/06/30 03:25:02;;;;;;;1.33;1.20;;;28.10;53.50;;;;;;5107693;28;20565;-73
2021/06/30 03:27:34;;;;;;;1.13;1.13;;;28.10;53.50;;;;;;5107458;28;20126;-73
2021/06/30 03:30:08;;;;;;;0.88;0.88;;;28.10;53.50;;;;;;5090426;28;20051;-73
2021/06/30 03:32:41;;;;;;;0.90;0.90;;;28.10;53.50;;;;;;5107439;28;20875;-73
2021/06/30 03:35:13;;;;;;;2.28;0.90;;;28.20;53.50;;;;;;5107339;28;20516;-73
2021/06/30 03:37:45;;;;;;;1.00;1.00;;;28.20;53.50;;;;;;5107963;28;20816;-73
2021/06/30 03:40:17;;;;;;;1.15;1.00;;;28.10;53.40;;;;;;5107545;28;20055;-73
2021/06/30 03:42:48;;;;;;;1.55;1.20;;;28.10;53.40;;;;;;5107215;28;20048;-73
2021/06/30 03:45:20;;;;;;;0.80;0.80;;;28.10;53.30;;;;;;5107195;28;20123;-73
2021/06/30 03:47:53;;;;;;;0.90;0.90;;;28.20;53.40;;;;;;5107045;28;20123;-73
2021/06/30 03:50:25;;;;;;;1.08;0.80;;;28.20;53.40;;;;;;5107387;28;20698;-73
2021/06/30 03:52:57;;;;;;;1.10;0.80;;;28.20;53.40;;;;;;5107140;28;20043;-73
2021/06/30 03:55:29;;;;;;;1.13;1.13;;;28.20;53.30;;;;;;5106964;28;20135;-73
2021/06/30 03:58:02;;;;;;;0.80;0.80;;;28.20;53.20;;;;;;5111110;28;20134;-73
2021/06/30 04:00:34;;;;;;;1.23;1.17;;;28.20;53.20;;;;;;5110681;28;20058;-74
2021/06/30 04:03:06;;;;;;;0.85;0.85;;;28.30;53.20;;;;;;5111081;28;20412;-73
2021/06/30 04:05:38;;;;;;;1.48;1.13;;;28.30;53.10;;;;;;5110933;28;20256;-73
2021/06/30 04:08:11;;;;;;;0.88;0.88;;;28.30;53.00;;;;;;5111301;28;20073;-74
2021/06/30 04:10:43;;;;;;;0.77;0.75;;;28.30;53.00;;;;;;5108272;28;20082;-73
2021/06/30 04:13:16;;;;;;;1.65;1.20;;;28.40;53.00;;;;;;5110518;28;20515;-73
2021/06/30 04:15:48;;;;;;;1.33;1.10;;;28.40;52.90;;;;;;5109928;28;20123;-73
2021/06/30 04:18:21;;;;;;;0.80;0.80;;;28.40;52.80;;;;;;5111094;28;20043;-74
2021/06/30 04:20:52;;;;;;;1.33;1.30;;;28.40;52.70;;;;;;5110733;28;20130;-74
2021/06/30 04:23:25;;;;;;;1.00;1.00;;;28.50;52.70;;;;;;5093233;28;20055;-73
2021/06/30 04:25:57;;;;;;;0.98;0.90;;;28.50;52.70;;;;;;5110140;28;20135;-73
2021/06/30 04:28:29;;;;;;;1.10;1.10;;;28.50;52.60;;;;;;5110915;28;20485;-73
2021/06/30 04:31:01;;;;;;;0.82;0.82;;;28.60;52.60;;;;;;5110619;28;20052;-73
2021/06/30 04:33:33;;;;;;;0.65;0.65;;;28.50;52.50;;;;;;5110452;28;20061;-73
2021/06/30 04:36:05;;;;;;;1.02;0.93;;;28.60;52.50;;;;;;5110783;28;20051;-73
2021/06/30 04:38:38;;;;;;;1.05;1.05;;;28.60;52.30;;;;;;5110936;28;20134;-73
2021/06/30 04:41:11;;;;;;;1.05;1.05;;;28.60;52.20;;;;;;5110007;28;20407;-73
2021/06/30 04:43:43;;;;;;;0.70;0.70;;;28.70;52.20;;;;;;5109420;28;20058;-73
2021/06/30 04:46:15;;;;;;;0.93;0.93;;;28.70;52.20;;;;;;5107027;28;20043;-73
2021/06/30 04:48:48;;;;;;;0.80;0.80;;;28.70;52.00;;;;;;5100602;28;20052;-73
2021/06/30 04:51:21;;;;;;;0.70;0.70;;;28.80;51.90;;;;;;5095480;28;20076;-73
2021/06/30 04:53:53;;;;;;;0.90;0.90;;;28.80;51.80;;;;;;5109332;28;20123;-73
2021/06/30 04:56:29;;;;;;;1.10;1.10;;;28.90;51.80;;;;;;5109734;28;20496;-73
2021/06/30 04:59:01;;;;;;;0.90;0.90;;;28.90;51.70;;;;;;5109559;28;20465;-73
2021/06/30 05:01:34;;;;;;;1.13;1.02;;;28.90;51.60;;;;;;5091494;28;20041;-73
2021/06/30 05:04:06;;;;;;;1.20;1.10;;;29.00;51.60;;;;;;5109321;28;20086;-73
2021/06/30 05:06:38;;;;;;;1.05;0.90;;;29.00;51.50;;;;;;5109874;28;20118;-73
2021/06/30 05:09:11;;;;;;;1.40;1.30;;;28.90;51.60;;;;;;5106187;28;20082;-74
2021/06/30 05:11:43;;;;;;;1.20;0.90;;;28.70;51.90;;;;;;5088940;28;20119;-74
2021/06/30 05:14:15;;;;;;;0.80;0.80;;;28.40;52.30;;;;;;5109102;28;20119;-74
2021/06/30 05:16:47;;;;;;;1.00;0.90;;;28.10;53.20;;;;;;5109282;28;20070;-74
2021/06/30 05:19:20;;;;;;;1.00;0.95;;;27.70;54.10;;;;;;5109005;28;20118;-74
2021/06/30 05:21:52;;;;;;;1.10;1.10;;;27.40;55.00;;;;;;5101889;28;20050;-73
2021/06/30 05:24:24;;;;;;;0.90;0.90;;;27.10;55.40;;;;;;5104275;28;20474;-73
2021/06/30 05:26:56;;;;;;;1.08;1.00;;;26.90;55.80;;;;;;5070919;28;20114;-74
2021/06/30 05:29:28;;;;;;;0.90;0.90;;;26.70;56.10;;;;;;5098755;28;20462;-71
2021/06/30 05:32:01;;;;;;;2.50;0.75;;;26.50;56.10;;;;;;5082946;28;20189;-71
2021/06/30 05:34:32;;;;;;;0.95;0.95;;;26.40;55.30;;;;;;5094723;28;20572;-72
2021/06/30 05:37:05;;;;;;;1.65;0.90;;;26.20;54.30;;;;;;5076825;27;20489;-72
2021/06/30 05:39:37;;;;;;;2.50;1.05;;;25.90;53.90;;;;;;5102053;28;20070;-70
2021/06/30 05:42:09;;;;;;;1.85;1.45;;;25.80;54.20;;;;;;5100698;28;20737;-69
2021/06/30 05:44:41;;;;;;;1.98;0.90;;;25.60;54.30;;;;;;5102532;27;20082;-74
2021/06/30 05:47:13;;;;;;;6.97;1.40;;;25.50;54.40;;;;;;5078961;27;20456;-71
2021/06/30 05:49:45;;;;;;;7.03;1.27;;;25.40;54.90;;;;;;5098683;27;20070;-70
2021/06/30 05:52:17;;;;;;;3.35;1.00;;;25.40;55.30;;;;;;5077253;28;20075;-71
2021/06/30 05:54:49;;;;;;;3.28;1.30;;;25.40;54.50;;;;;;5101123;28;20075;-71
2021/06/30 05:57:21;;;;;;;4.97;1.25;;;25.20;54.30;;;;;;5099090;27;20087;-71
2021/06/30 05:59:53;;;;;;;1.83;1.33;;;25.20;54.60;;;;;;5067934;27;20069;-71
2021/06/30 06:02:26;;;;;;;4.15;1.50;;;25.10;54.70;;;;;;5101541;28;20134;-70
2021/06/30 06:04:58;;;;;;;3.28;1.85;;;25.10;55.20;;;;;;5099138;27;20134;-71
2021/06/30 06:07:25;;;;;;;5.63;1.27;;;25.00;55.30;;;;;;5099629;27;20442;-72
2021/06/30 06:09:59;;;;;;;4.03;1.20;;;25.00;55.30;;;;;;5076968;28;20082;-72
2021/06/30 06:12:30;;;;;;;5.10;1.25;;;24.90;55.10;;;;;;5094201;27;20048;-73
2021/06/30 06:15:05;;;;;;;2.75;1.23;;;24.90;55.50;;;;;;5079899;27;20039;-75
2021/06/30 06:17:32;;;;;;;3.08;1.48;;;24.80;56.10;;;;;;5090611;28;20077;-72
2021/06/30 06:20:06;;;;;;;4.75;1.30;;;24.90;56.60;;;;;;5097241;28;20131;-70
2021/06/30 06:22:38;;;;;;;1.38;1.27;;;24.90;57.40;;;;;;5098562;27;20408;-71
2021/06/30 06:25:11;;;;;;;1.27;0.93;;;24.90;57.70;;;;;;5100064;28;20162;-72
2021/06/30 06:27:43;;;;;;;3.17;1.42;;;24.90;58.00;;;;;;5096282;28;20456;-66
2021/06/30 06:30:17;;;;;;;3.80;1.90;;;24.90;58.30;;;;;;5082323;27;20476;-66
2021/06/30 06:32:49;;;;;;;2.22;1.02;;;25.00;58.20;;;;;;5079806;28;20062;-66
2021/06/30 06:35:21;;;;;;;1.95;1.30;;;24.90;58.40;;;;;;5099562;27;20750;-65
2021/06/30 06:37:53;;;;;;;3.75;1.40;;;24.90;59.20;;;;;;5096936;28;20122;-66
2021/06/30 06:40:26;;;;;;;1.17;1.00;;;24.90;58.80;;;;;;5081277;27;21045;-67
2021/06/30 06:42:58;;;;;;;1.45;1.02;;;25.00;58.70;;;;;;5079507;28;20138;-67
2021/06/30 06:45:30;;;;;;;3.35;1.10;;;25.00;58.70;;;;;;5095317;27;20382;-67
2021/06/30 06:48:02;;;;;;;2.58;0.80;;;25.00;58.50;;;;;;5101763;27;20170;-70
2021/06/30 06:50:35;;;;;;;1.23;1.10;;;25.10;58.60;;;;;;5108831;27;20039;-71
2021/06/30 06:53:07;;;;;;;4.88;1.48;;;25.10;58.40;;;;;;5100250;27;20055;-71
2021/06/30 06:55:39;;;;;;;2.88;1.27;;;25.10;58.20;;;;;;5100624;28;20086;-70
2021/06/30 06:58:08;;;;;;;1.73;1.25;;;25.10;58.00;;;;;;5100301;27;20075;-70
2021/06/30 07:00:41;;;;;;;2.15;0.93;;;25.10;58.00;;;;;;5080843;28;20055;-71
2021/06/30 07:03:13;;;;;;;0.85;0.85;;;25.10;58.10;;;;;;5102608;28;20082;-69
2021/06/30 07:05:45;;;;;;;2.85;0.95;;;25.10;58.00;;;;;;5098853;27;20046;-73
2021/06/30 07:08:17;;;;;;;2.95;1.00;;;25.10;58.10;;;;;;5099705;27;20506;-70
2021/06/30 07:10:49;;;;;;;4.68;1.05;;;25.10;58.40;;;;;;5078221;28;20130;-69
2021/06/30 07:13:21;;;;;;;1.75;1.10;;;25.00;58.30;;;;;;5096093;28;20047;-70
2021/06/30 07:15:53;;;;;;;2.22;1.20;;;25.00;58.20;;;;;;5097698;28;20044;-70
2021/06/30 07:18:25;;;;;;;2.30;1.40;;;25.00;58.50;;;;;;5099307;28;20131;-70
2021/06/30 07:21:01;;;;;;;1.60;0.98;;;25.00;59.00;;;;;;5099094;28;20067;-71
2021/06/30 07:23:33;;;;;;;1.42;0.88;;;25.00;59.00;;;;;;5095121;28;20055;-73
2021/06/30 07:26:05;;;;;;;4.10;1.90;;;25.00;59.00;;;;;;5096040;28;20127;-70
2021/06/30 07:28:38;;;;;;;2.95;0.95;;;25.00;59.30;;;;;;5096644;28;20459;-72
2021/06/30 07:31:11;;;;;;;4.43;1.05;;;25.10;59.20;;;;;;5093469;27;20504;-71
2021/06/30 07:33:43;;;;;;;1.42;1.05;;;25.10;59.30;;;;;;5103938;27;20050;-71
2021/06/30 07:36:16;;;;;;;2.40;1.10;;;25.10;59.20;;;;;;5099754;27;20501;-70
2021/06/30 07:38:48;;;;;;;1.45;1.10;;;25.10;59.20;;;;;;5102288;27;20047;-68
2021/06/30 07:41:21;;;;;;;1.85;1.13;;;25.20;58.90;;;;;;5100242;28;20046;-68
2021/06/30 07:43:53;;;;;;;3.58;0.80;;;25.10;59.00;;;;;;5099764;27;20055;-66
2021/06/30 07:46:20;;;;;;;1.48;1.10;;;25.20;59.20;;;;;;5103156;27;20447;-66
2021/06/30 07:48:50;;;;;;;1.67;0.82;;;25.20;59.80;;;;;;5102123;28;20143;-67
2021/06/30 07:51:17;;;;;;;1.00;1.00;;;25.30;59.90;;;;;;5082871;28;20051;-65
2021/06/30 07:53:44;;;;;;;0.95;0.95;;;25.30;60.20;;;;;;5099606;27;20532;-66
2021/06/30 07:56:12;;;;;;;1.13;1.02;;;25.30;60.20;;;;;;5101242;28;20058;-66
2021/06/30 07:58:39;;;;;;;1.80;1.23;;;25.30;60.40;;;;;;5086552;28;20302;-65
2021/06/30 08:01:07;;;;;;;1.13;1.00;;;25.30;60.20;;;;;;5103363;27;20135;-66
2021/06/30 08:03:34;;;;;;;1.92;0.85;;;25.30;59.90;;;;;;5099021;27;20044;-70
2021/06/30 08:06:01;;;;;;;3.35;1.20;;;25.30;60.10;;;;;;5101709;27;20514;-69
2021/06/30 08:08:29;;;;;;;0.80;0.80;;;25.30;60.30;;;;;;5081402;28;20084;-70
2021/06/30 08:10:56;;;;;;;1.15;1.05;;;25.30;60.70;;;;;;5071889;27;20043;-71
2021/06/30 08:13:23;;;;;;;1.83;0.93;;;25.30;60.70;;;;;;5099495;28;20484;-71
2021/06/30 08:15:51;;;;;;;1.08;0.93;;;25.30;60.60;;;;;;5102558;27;20044;-70
2021/06/30 08:18:18;;;;;;;2.25;1.60;;;25.30;60.70;;;;;;5104026;27;20142;-70
2021/06/30 08:20:50;;;;;;;1.73;1.10;;;25.30;60.80;;;;;;5103511;27;20058;-71
2021/06/30 08:23:18;;;;;;;0.73;0.73;;;25.30;60.80;;;;;;5108455;27;20048;-71
2021/06/30 08:25:46;;;;;;;2.70;1.50;;;25.30;60.70;;;;;;5106876;27;20066;-71
2021/06/30 08:28:17;;;;;;;0.90;0.90;;;25.40;60.60;;;;;;5097192;27;20067;-71
2021/06/30 08:30:45;;;;;;;1.83;1.20;;;25.40;60.30;;;;;;5082004;28;20570;-70
2021/06/30 08:33:12;;;;;;;1.20;0.80;;;25.40;60.20;;;;;;5104394;28;20059;-70
2021/06/30 08:35:39;;;;;;;1.33;1.10;;;25.40;60.40;;;;;;5102116;27;20396;-71
2021/06/30 08:38:07;;;;;;;2.17;1.02;;;25.30;60.40;;;;;;5097257;27;20361;-70
2021/06/30 08:40:37;;;;;;;2.47;1.00;;;25.30;60.20;;;;;;5097749;27;20048;-70
2021/06/30 08:43:06;;;;;;;1.45;0.98;;;25.30;60.20;;;;;;5100398;28;20075;-70
2021/06/30 08:45:34;;;;;;;1.58;0.95;;;25.30;60.00;;;;;;5098456;27;20048;-71
2021/06/30 08:48:02;;;;;;;5.95;1.08;;;25.20;59.90;;;;;;5097381;28;20126;-71
2021/06/30 08:50:30;;;;;;;2.95;1.10;;;25.20;59.90;;;;;;5103214;27;20161;-72
2021/06/30 08:52:59;;;;;;;2.00;1.02;;;25.20;60.00;;;;;;5105065;27;20377;-69
2021/06/30 08:55:38;;;;;;;1.67;1.20;;;25.20;60.10;;;;;;5097752;28;20067;-72
2021/06/30 08:58:06;;;;;;;0.90;0.88;;;25.20;60.20;;;;;;5101187;28;20054;-72
2021/06/30 09:00:34;;;;;;;3.95;1.05;;;25.20;60.40;;;;;;5102121;27;20453;-73
2021/06/30 09:03:01;;;;;;;2.65;1.20;;;25.20;60.60;;;;;;5101669;27;20126;-71
2021/06/30 09:05:38;;;;;;;1.10;1.05;;;25.20;60.70;;;;;;5086599;28;20054;-72
2021/06/30 09:08:06;;;;;;;1.00;0.90;;;25.20;60.90;;;;;;5103268;27;20720;-73
2021/06/30 09:10:36;;;;;;;1.20;0.90;;;25.10;60.90;;;;;;5098436;28;20117;-71
2021/06/30 09:13:07;;;;;;;3.53;1.00;;;25.10;60.90;;;;;;5103673;27;20127;-72
2021/06/30 09:15:36;;;;;;;1.13;0.98;;;25.10;60.90;;;;;;5104563;27;20550;-72
2021/06/30 09:18:27;;;;;;;2.50;0.90;;;25.10;60.80;;;;;;5102483;27;20048;-72
2021/06/30 09:21:21;;;;;;;1.23;0.80;;;25.10;60.50;;;;;;5104134;27;20125;-73
2021/06/30 09:23:57;;;;;;;3.65;1.60;;;25.10;60.70;;;;;;5083941;28;20054;-72
2021/06/30 09:26:24;;;;;;;1.20;0.90;;;25.10;60.70;;;;;;5096229;28;20040;-73
2021/06/30 09:29:09;;;;;;;5.95;1.00;;;25.10;60.60;;;;;;5101618;28;20071;-72
2021/06/30 09:31:45;;;;;;;3.05;1.48;;;25.10;60.80;;;;;;5100227;27;20039;-72
2021/06/30 09:34:13;;;;;;;4.18;1.20;;;25.10;60.80;;;;;;5098744;28;20443;-72
2021/06/30 09:36:47;;;;;;;2.00;0.93;;;25.10;60.80;;;;;;5097093;27;20127;-72
2021/06/30 09:39:15;;;;;;;2.70;1.02;;;25.10;60.90;;;;;;5092913;27;20138;-74
2021/06/30 09:41:45;;;;;;;1.52;1.00;;;25.10;60.90;;;;;;5097790;28;20143;-73
2021/06/30 09:44:20;;;;;;;2.58;1.30;;;25.10;60.80;;;;;;5100746;27;20138;-74
2021/06/30 09:46:51;;;;;;;1.88;1.25;;;25.10;60.70;;;;;;5102582;27;20553;-72
2021/06/30 09:49:20;;;;;;;2.67;1.02;;;25.10;60.80;;;;;;5102303;28;20044;-73
2021/06/30 09:52:16;;;;;;;1.83;1.40;;;25.10;60.80;;;;;;5103901;27;20044;-74
2021/06/30 09:54:47;;;;;;;3.45;1.00;;;25.10;60.80;;;;;;5078351;28;20048;-75
2021/06/30 09:57:16;;;;;;;1.33;0.90;;;25.20;60.80;;;;;;5099085;28;20145;-73
2021/06/30 09:59:45;;;;;;;2.47;1.20;;;25.20;60.80;;;;;;5103645;27;20044;-73
2021/06/30 10:02:17;;;;;;;1.25;1.15;;;25.20;60.80;;;;;;5096929;27;20051;-72
2021/06/30 10:04:46;;;;;;;2.05;0.82;;;25.20;60.90;;;;;;5102151;27;20400;-71
2021/06/30 10:07:27;;;;;;;4.30;1.30;;;25.20;60.70;;;;;;5098919;28;20039;-72
2021/06/30 10:10:09;;;;;;;1.50;1.00;;;25.20;60.50;;;;;;5102130;27;20070;-71
2021/06/30 10:12:38;;;;;;;1.02;1.00;;;25.20;60.50;;;;;;5098492;28;20460;-72
2021/06/30 10:15:07;;;;;;;1.30;0.90;;;25.20;60.50;;;;;;5080884;28;20048;-72
2021/06/30 10:17:36;;;;;;;1.13;1.03;;;25.20;60.50;;;;;;5100367;27;20133;-71
2021/06/30 10:20:06;;;;;;;1.77;1.05;;;25.20;60.70;;;;;;5097961;27;20047;-69
2021/06/30 10:22:33;;;;;;;2.10;0.90;;;25.20;61.00;;;;;;5100204;27;20043;-71
2021/06/30 10:25:00;;;;;;;1.30;1.20;;;25.20;61.10;;;;;;5099556;28;20151;-68
2021/06/30 10:27:27;;;;;;;3.60;1.77;;;25.20;61.20;;;;;;5096653;28;20048;-71
2021/06/30 10:29:58;;;;;;;4.00;1.00;;;25.20;61.30;;;;;;5099926;28;20151;-73
2021/06/30 10:32:26;;;;;;;2.60;1.15;;;25.20;61.10;;;;;;5099262;27;20050;-71
2021/06/30 10:34:59;;;;;;;3.35;0.98;;;25.10;61.30;;;;;;5096305;28;20043;-73
2021/06/30 10:37:36;;;;;;;3.88;0.80;;;25.10;61.40;;;;;;5093064;28;20057;-71
2021/06/30 10:40:08;;;;;;;3.88;1.00;;;25.20;61.20;;;;;;5100317;28;20080;-73
2021/06/30 10:42:46;;;;;;;8.50;1.30;;;25.20;61.20;;;;;;5085107;28;20042;-71
2021/06/30 10:45:21;;;;;;;1.38;1.20;;;25.20;61.10;;;;;;5105573;27;20049;-67
2021/06/30 10:48:11;;;;;;;1.65;1.20;;;25.20;60.90;;;;;;5109350;27;20074;-69
2021/06/30 10:50:56;;;;;;;2.28;0.77;;;25.20;60.80;;;;;;5099272;28;20093;-68
2021/06/30 10:53:36;;;;;;;1.45;0.90;;;25.20;60.70;;;;;;5101560;28;20047;-68
2021/06/30 10:56:06;;;;;;;1.15;0.80;;;25.20;60.70;;;;;;5098568;27;20043;-67
2021/06/30 10:58:37;;;;;;;0.98;0.88;;;25.10;60.70;;;;;;5100086;28;20039;-66
2021/06/30 11:01:09;;;;;;;2.67;1.00;;;25.10;60.70;;;;;;5104340;28;20062;-67
2021/06/30 11:03:49;;;;;;;2.67;1.50;;;25.10;60.60;;;;;;5096894;27;20078;-68
2021/06/30 11:06:28;;;;;;;1.67;1.20;;;25.10;60.60;;;;;;5101067;27;20569;-71
2021/06/30 11:09:07;;;;;;;2.93;1.20;;;25.10;60.60;;;;;;5086869;27;20047;-70
2021/06/30 11:11:55;;;;;;;1.00;0.90;;;25.10;61.00;;;;;;5098678;28;20291;-71
2021/06/30 11:14:38;;;;;;;1.20;1.08;;;25.00;61.10;;;;;;5079738;28;20082;-68
2021/06/30 11:17:05;;;;;;;2.15;0.90;;;25.10;61.30;;;;;;5094960;28;20047;-70
2021/06/30 11:19:38;;;;;;;2.90;1.08;;;25.10;61.20;;;;;;5093352;28;20134;-70
2021/06/30 11:22:20;;;;;;;1.13;0.80;;;25.10;61.10;;;;;;5096393;28;20072;-72
2021/06/30 11:24:48;;;;;;;2.67;1.02;;;25.10;61.10;;;;;;5092659;28;20091;-68
2021/06/30 11:27:36;;;;;;;2.08;0.88;;;25.10;61.20;;;;;;5097242;28;20874;-73
2021/06/30 11:30:05;;;;;;;0.88;0.82;;;25.10;61.40;;;;;;5095523;28;20075;-71
2021/06/30 11:32:44;;;;;;;0.75;0.73;;;25.10;61.40;;;;;;5082667;28;20051;-68
2021/06/30 11:35:27;;;;;;;4.25;1.00;;;25.10;61.50;;;;;;5101720;28;20432;-73
2021/06/30 11:38:00;;;;;;;1.02;0.70;;;25.10;61.90;;;;;;5096762;28;20562;-70
2021/06/30 11:40:32;;;;;;;0.85;0.82;;;25.10;62.20;;;;;;5100784;28;20130;-67
2021/06/30 11:43:01;;;;;;;2.80;1.05;;;25.10;62.30;;;;;;5100239;28;20423;-69
2021/06/30 11:45:33;;;;;;;1.38;1.00;;;25.20;62.40;;;;;;5103016;28;20557;-69
2021/06/30 11:48:08;;;;;;;2.45;0.80;;;25.20;62.40;;;;;;5102774;28;20103;-73
2021/06/30 11:50:49;;;;;;;3.92;0.80;;;25.20;62.30;;;;;;5106081;28;20458;-73
2021/06/30 11:53:37;;;;;;;1.90;1.02;;;25.20;62.40;;;;;;5094623;28;20054;-71
2021/06/30 11:56:06;;;;;;;2.05;0.93;;;25.20;62.50;;;;;;5101696;28;20055;-72
2021/06/30 11:58:41;;;;;;;1.95;0.90;;;25.20;62.80;;;;;;5099514;28;20130;-72
2021/06/30 12:01:28;;;;;;;2.08;1.10;;;25.20;62.70;;;;;;5100075;28;20143;-72
2021/06/30 12:04:17;;;;;;;0.95;0.90;;;25.30;62.50;;;;;;5096334;28;20086;-73
2021/06/30 12:07:00;;;;;;;4.18;1.30;;;25.30;62.60;;;;;;5105677;28;20090;-73
2021/06/30 12:09:32;;;;;;;2.95;0.85;;;25.30;62.70;;;;;;5102833;28;20485;-71
2021/06/30 12:12:10;;;;;;;1.38;0.88;;;25.30;62.70;;;;;;5097505;28;20345;-71
2021/06/30 12:14:50;;;;;;;0.75;0.75;;;25.30;62.70;;;;;;5078915;28;20079;-72
2021/06/30 12:17:20;;;;;;;0.80;0.63;;;25.30;62.80;;;;;;5104201;28;20537;-72
2021/06/30 12:19:50;;;;;;;1.70;0.80;;;25.20;62.90;;;;;;5109247;27;20071;-68
2021/06/30 12:22:25;;;;;;;2.00;0.90;;;25.30;63.20;;;;;;5106702;28;20840;-71
2021/06/30 12:25:01;;;;;;;4.70;1.20;;;25.30;63.40;;;;;;5079612;28;20058;-70
2021/06/30 12:27:43;;;;;;;0.57;0.57;;;25.30;63.30;;;;;;5101301;27;20491;-70
2021/06/30 12:30:13;;;;;;;3.90;1.05;;;25.30;63.20;;;;;;5106855;28;20052;-72
2021/06/30 12:32:55;;;;;;;1.77;1.00;;;25.40;63.20;;;;;;5104415;27;20422;-72
2021/06/30 12:35:26;;;;;;;2.92;1.05;;;25.40;63.10;;;;;;5104400;27;20096;-69
2021/06/30 12:37:57;;;;;;;1.20;1.10;;;25.40;62.70;;;;;;5099625;28;20062;-73
2021/06/30 12:40:44;;;;;;;0.85;0.73;;;25.40;62.70;;;;;;5102409;27;20508;-71
2021/06/30 12:43:16;;;;;;;0.88;0.88;;;25.40;62.60;;;;;;5099302;28;20181;-72
2021/06/30 12:45:52;;;;;;;0.95;0.70;;;25.50;62.30;;;;;;5103002;27;20117;-72
2021/06/30 12:48:26;;;;;;;1.65;0.88;;;25.50;62.20;;;;;;5108057;27;20074;-72
2021/06/30 12:50:55;;;;;;;0.95;0.85;;;25.50;62.20;;;;;;5104592;27;20051;-71
2021/06/30 12:53:27;;;;;;;1.25;0.70;;;25.60;62.20;;;;;;5104719;28;20043;-71
2021/06/30 12:56:13;;;;;;;2.08;0.95;;;25.60;62.10;;;;;;5099209;28;20101;-71
2021/06/30 12:58:43;;;;;;;1.50;1.10;;;25.60;62.00;;;;;;5096686;27;20143;-73
2021/06/30 13:01:14;;;;;;;1.00;0.80;;;25.60;61.80;;;;;;5103512;28;20122;-73
2021/06/30 13:03:48;;;;;;;0.85;0.80;;;25.60;61.90;;;;;;5096925;28;20036;-73
2021/06/30 13:06:22;;;;;;;1.33;0.88;;;25.50;61.90;;;;;;5101241;27;20139;-71
2021/06/30 13:09:11;;;;;;;1.15;0.98;;;25.50;61.80;;;;;;5103744;28;20476;-72
2021/06/30 13:11:45;;;;;;;2.30;1.20;;;25.50;62.40;;;;;;5102984;27;20054;-72
2021/06/30 13:14:21;;;;;;;1.40;0.98;;;25.40;61.90;;;;;;5098987;28;20500;-71
2021/06/30 13:17:00;;;;;;;1.70;0.98;;;25.40;62.00;;;;;;5083262;28;20044;-70